createdAt,value
2019-06-10T00:00:50.981Z,0.00
2019-06-10T00:01:51.408Z,0.00
2019-06-10T00:02:50.949Z,0.00
2019-06-10T00:03:51.802Z,0.00
2019-06-10T00:04:50.934Z,0.00
2019-06-10T00:05:51.768Z,0.00
2019-06-10T00:06:51.070Z,0.00
2019-06-10T00:07:51.593Z,0.00
2019-06-10T00:08:50.907Z,0.00
2019-06-10T00:09:51.225Z,0.00
2019-06-10T00:10:51.217Z,0.00
2019-06-10T00:11:51.466Z,0.00
2019-06-10T00:12:51.432Z,0.00
2019-06-10T00:13:50.893Z,0.00
2019-06-10T00:14:51.060Z,0.00
2019-06-10T00:15:51.501Z,0.00
2019-06-10T00:16:51.064Z,0.00
2019-06-10T00:18:01.355Z,0.00
2019-06-10T00:18:51.791Z,0.00
2019-06-10T00:19:51.232Z,0.00
2019-06-10T00:20:51.290Z,0.00
2019-06-10T00:21:51.044Z,0.00
2019-06-10T00:22:51.515Z,0.00
2019-06-10T00:23:51.838Z,0.00
2019-06-10T00:24:52.210Z,0.00
2019-06-10T00:25:51.549Z,0.00
2019-06-10T00:26:51.220Z,0.00
2019-06-10T00:27:51.168Z,0.00
2019-06-10T00:28:51.304Z,0.00
2019-06-10T00:29:51.268Z,0.00
2019-06-10T00:30:51.582Z,0.00
2019-06-10T00:31:50.935Z,0.00
2019-06-10T00:32:51.566Z,0.00
2019-06-10T00:33:51.962Z,0.00
2019-06-10T00:34:50.893Z,0.00
2019-06-10T00:35:51.507Z,0.00
2019-06-10T00:36:51.049Z,0.00
2019-06-10T00:37:51.241Z,0.00
2019-06-10T00:38:51.708Z,0.00
2019-06-10T00:39:51.247Z,0.00
2019-06-10T00:40:51.371Z,0.00
2019-06-10T00:41:52.112Z,0.00
2019-06-10T00:42:50.807Z,0.00
2019-06-10T00:43:51.662Z,0.00
2019-06-10T00:44:50.883Z,0.00
2019-06-10T00:45:51.347Z,0.00
2019-06-10T00:46:51.599Z,0.00
2019-06-10T00:47:52.051Z,0.00
2019-06-10T00:48:51.431Z,0.00
2019-06-10T00:49:51.493Z,0.00
2019-06-10T00:50:51.836Z,0.00
2019-06-10T00:51:50.985Z,0.00
2019-06-10T00:52:51.640Z,0.00
2019-06-10T00:53:51.410Z,0.00
2019-06-10T00:54:51.887Z,0.00
2019-06-10T00:55:51.579Z,0.00
2019-06-10T00:56:51.791Z,0.00
2019-06-10T00:57:50.951Z,0.00
2019-06-10T00:58:51.375Z,0.00
2019-06-10T00:59:50.858Z,0.00
2019-06-10T01:00:51.656Z,0.00
2019-06-10T01:01:50.861Z,0.00
2019-06-10T01:02:51.784Z,0.00
2019-06-10T01:03:50.926Z,0.00
2019-06-10T01:04:51.403Z,0.00
2019-06-10T01:05:50.846Z,0.00
2019-06-10T01:06:51.414Z,0.00
2019-06-10T01:07:50.796Z,0.00
2019-06-10T01:08:51.214Z,0.00
2019-06-10T01:09:57.978Z,0.00
2019-06-10T01:10:52.241Z,0.00
2019-06-10T01:11:51.954Z,0.00
2019-06-10T01:12:51.312Z,0.00
2019-06-10T01:13:50.822Z,0.00
2019-06-10T01:14:51.715Z,0.00
2019-06-10T01:15:51.155Z,0.00
2019-06-10T01:16:50.612Z,0.00
2019-06-10T01:17:51.126Z,0.00
2019-06-10T01:18:53.232Z,0.00
2019-06-10T01:19:50.888Z,0.00
2019-06-10T01:20:51.691Z,0.00
2019-06-10T01:21:51.149Z,0.00
2019-06-10T01:22:51.611Z,0.00
2019-06-10T01:23:51.023Z,0.00
2019-06-10T01:24:51.085Z,0.00
2019-06-10T01:25:51.060Z,0.00
2019-06-10T01:26:50.559Z,0.00
2019-06-10T01:27:51.510Z,0.00
2019-06-10T01:28:51.675Z,0.00
2019-06-10T01:29:51.093Z,0.00
2019-06-10T01:30:51.687Z,0.00
2019-06-10T01:31:51.240Z,0.00
2019-06-10T01:32:50.619Z,0.00
2019-06-10T01:33:51.307Z,0.00
2019-06-10T01:34:50.825Z,0.00
2019-06-10T01:35:51.436Z,0.00
2019-06-10T01:36:50.950Z,0.00
2019-06-10T01:37:51.854Z,0.00
2019-06-10T01:38:51.126Z,0.00
2019-06-10T01:39:51.507Z,0.00
2019-06-10T01:40:50.923Z,0.00
2019-06-10T01:41:51.195Z,0.00
2019-06-10T01:42:50.629Z,0.00
2019-06-10T01:43:51.331Z,0.00
2019-06-10T01:44:50.696Z,0.00
2019-06-10T01:45:51.156Z,0.00
2019-06-10T01:46:51.606Z,0.00
2019-06-10T01:47:51.132Z,0.00
2019-06-10T01:48:52.078Z,0.00
2019-06-10T01:49:51.671Z,0.00
2019-06-10T01:50:51.329Z,0.00
2019-06-10T01:51:51.608Z,0.00
2019-06-10T01:52:51.558Z,0.00
2019-06-10T01:53:51.285Z,0.00
2019-06-10T01:54:51.554Z,0.00
2019-06-10T01:55:51.826Z,0.00
2019-06-10T01:56:51.027Z,0.00
2019-06-10T01:57:51.785Z,0.00
2019-06-10T01:58:51.395Z,0.00
2019-06-10T01:59:50.927Z,0.00
2019-06-10T02:00:50.735Z,0.00
2019-06-10T02:01:51.638Z,0.00
2019-06-10T02:02:52.374Z,0.00
2019-06-10T02:03:51.734Z,0.00
2019-06-10T02:04:51.727Z,0.00
2019-06-10T02:05:51.649Z,0.00
2019-06-10T02:06:51.127Z,0.00
2019-06-10T02:07:51.529Z,0.00
2019-06-10T02:08:51.007Z,0.00
2019-06-10T02:09:51.606Z,0.00
2019-06-10T02:10:50.970Z,0.00
2019-06-10T02:11:51.366Z,0.00
2019-06-10T02:12:50.875Z,0.00
2019-06-10T02:13:51.423Z,0.00
2019-06-10T02:14:50.912Z,0.00
2019-06-10T02:15:51.372Z,0.00
2019-06-10T02:16:50.673Z,0.00
2019-06-10T02:17:50.984Z,0.00
2019-06-10T02:19:00.242Z,0.00
2019-06-10T02:19:50.920Z,0.00
2019-06-10T02:20:51.351Z,0.00
2019-06-10T02:21:51.048Z,0.00
2019-06-10T02:22:51.421Z,0.00
2019-06-10T02:23:51.594Z,0.00
2019-06-10T02:24:50.643Z,0.00
2019-06-10T02:25:51.266Z,0.00
2019-06-10T02:26:51.495Z,0.00
2019-06-10T02:27:50.776Z,0.00
2019-06-10T02:28:51.252Z,0.00
2019-06-10T02:29:50.720Z,0.00
2019-06-10T02:30:51.914Z,0.00
2019-06-10T02:31:52.221Z,0.00
2019-06-10T02:32:52.149Z,4.00
2019-06-10T02:33:52.386Z,4.00
2019-06-10T02:35:03.547Z,4.00
2019-06-10T02:35:53.567Z,0.00
2019-06-10T02:36:49.244Z,0.00
2019-06-10T02:37:49.232Z,4.00
2019-06-10T02:38:49.226Z,4.00
2019-06-10T02:39:49.214Z,4.00
2019-06-10T02:40:49.232Z,4.00
2019-06-10T02:41:49.194Z,4.00
2019-06-10T02:42:49.174Z,4.00
2019-06-10T02:43:49.163Z,4.00
2019-06-10T02:44:49.159Z,4.00
2019-06-10T02:45:49.148Z,4.00
2019-06-10T02:46:49.153Z,4.00
2019-06-10T02:47:49.120Z,0.00
2019-06-10T02:48:49.125Z,4.00
2019-06-10T02:49:59.029Z,8.00
2019-06-10T02:50:53.478Z,12.00
2019-06-10T02:51:49.102Z,16.00
2019-06-10T02:52:49.074Z,32.00
2019-06-10T02:53:49.057Z,36.00
2019-06-10T02:54:49.050Z,44.00
2019-06-10T02:55:49.036Z,44.00
2019-06-10T02:56:49.022Z,48.00
2019-06-10T02:57:49.029Z,56.00
2019-06-10T02:58:49.000Z,56.00
2019-06-10T02:59:48.991Z,56.00
2019-06-10T03:00:49.453Z,60.00
2019-06-10T03:01:48.969Z,64.00
2019-06-10T03:02:48.965Z,72.00
2019-06-10T03:03:49.797Z,72.00
2019-06-10T03:04:48.942Z,76.00
2019-06-10T03:05:48.983Z,72.00
2019-06-10T03:06:48.912Z,68.00
2019-06-10T03:07:48.921Z,68.00
2019-06-10T03:08:48.893Z,68.00
2019-06-10T03:09:48.878Z,72.00
2019-06-10T03:10:48.871Z,80.00
2019-06-10T03:11:48.859Z,80.00
2019-06-10T03:12:48.853Z,80.00
2019-06-10T03:13:48.837Z,84.00
2019-06-10T03:14:48.827Z,108.00
2019-06-10T03:15:48.815Z,140.00
2019-06-10T03:16:48.799Z,152.00
2019-06-10T03:17:48.812Z,140.00
2019-06-10T03:18:48.784Z,120.00
2019-06-10T03:19:50.774Z,116.00
2019-06-10T03:20:48.759Z,104.00
2019-06-10T03:21:48.748Z,108.00
2019-06-10T03:22:48.734Z,132.00
2019-06-10T03:23:48.733Z,144.00
2019-06-10T03:24:48.711Z,140.00
2019-06-10T03:25:48.702Z,120.00
2019-06-10T03:26:48.695Z,100.00
2019-06-10T03:27:48.676Z,84.00
2019-06-10T03:28:48.701Z,80.00
2019-06-10T03:29:48.659Z,88.00
2019-06-10T03:30:53.928Z,124.00
2019-06-10T03:31:49.702Z,152.00
2019-06-10T03:32:48.631Z,148.00
2019-06-10T03:33:48.613Z,136.00
2019-06-10T03:34:48.617Z,132.00
2019-06-10T03:35:48.608Z,148.00
2019-06-10T03:36:48.579Z,156.00
2019-06-10T03:37:48.570Z,176.00
2019-06-10T03:38:48.581Z,176.00
2019-06-10T03:39:48.548Z,152.00
2019-06-10T03:40:48.660Z,164.00
2019-06-10T03:41:48.530Z,160.00
2019-06-10T03:42:48.514Z,136.00
2019-06-10T03:43:48.506Z,144.00
2019-06-10T03:44:48.498Z,160.00
2019-06-10T03:45:48.483Z,180.00
2019-06-10T03:46:48.484Z,180.00
2019-06-10T03:47:48.455Z,160.00
2019-06-10T03:48:48.448Z,132.00
2019-06-10T03:49:52.522Z,108.00
2019-06-10T03:50:49.428Z,96.00
2019-06-10T03:51:48.450Z,88.00
2019-06-10T03:52:48.403Z,88.00
2019-06-10T03:53:48.390Z,88.00
2019-06-10T03:54:48.380Z,96.00
2019-06-10T03:55:48.366Z,92.00
2019-06-10T03:56:48.355Z,92.00
2019-06-10T03:57:48.356Z,96.00
2019-06-10T03:58:48.338Z,108.00
2019-06-10T03:59:48.327Z,128.00
2019-06-10T04:00:48.315Z,136.00
2019-06-10T04:01:48.298Z,156.00
2019-06-10T04:02:48.307Z,200.00
2019-06-10T04:03:48.277Z,268.00
2019-06-10T04:04:48.263Z,336.00
2019-06-10T04:05:48.264Z,348.00
2019-06-10T04:06:48.246Z,324.00
2019-06-10T04:07:48.231Z,316.00
2019-06-10T04:08:48.235Z,324.00
2019-06-10T04:09:48.210Z,332.00
2019-06-10T04:10:48.199Z,364.00
2019-06-10T04:11:48.192Z,400.00
2019-06-10T04:12:48.177Z,424.00
2019-06-10T04:13:48.165Z,456.00
2019-06-10T04:14:48.167Z,488.00
2019-06-10T04:15:48.143Z,504.00
2019-06-10T04:16:48.136Z,504.00
2019-06-10T04:17:48.121Z,484.00
2019-06-10T04:18:48.126Z,452.00
2019-06-10T04:19:48.095Z,412.00
2019-06-10T04:20:48.095Z,372.00
2019-06-10T04:21:48.083Z,344.00
2019-06-10T04:22:48.066Z,328.00
2019-06-10T04:23:48.066Z,316.00
2019-06-10T04:24:48.044Z,308.00
2019-06-10T04:25:48.036Z,304.00
2019-06-10T04:26:48.023Z,328.00
2019-06-10T04:27:48.007Z,372.00
2019-06-10T04:28:48.052Z,408.00
2019-06-10T04:29:47.994Z,420.00
2019-06-10T04:30:47.976Z,420.00
2019-06-10T04:31:47.968Z,424.00
2019-06-10T04:32:47.962Z,444.00
2019-06-10T04:33:47.939Z,456.00
2019-06-10T04:34:47.946Z,452.00
2019-06-10T04:35:47.926Z,428.00
2019-06-10T04:36:47.911Z,412.00
2019-06-10T04:37:47.895Z,408.00
2019-06-10T04:38:47.889Z,444.00
2019-06-10T04:39:47.898Z,476.00
2019-06-10T04:40:47.862Z,484.00
2019-06-10T04:41:47.851Z,488.00
2019-06-10T04:42:47.844Z,520.00
2019-06-10T04:43:47.836Z,580.00
2019-06-10T04:44:47.826Z,704.00
2019-06-10T04:45:47.818Z,752.00
2019-06-10T04:46:47.813Z,740.00
2019-06-10T04:47:47.787Z,688.00
2019-06-10T04:48:47.773Z,700.00
2019-06-10T04:49:47.763Z,680.00
2019-06-10T04:50:47.751Z,632.00
2019-06-10T04:51:47.752Z,636.00
2019-06-10T04:52:47.733Z,640.00
2019-06-10T04:53:47.723Z,616.00
2019-06-10T04:54:47.706Z,716.00
2019-06-10T04:55:47.699Z,772.00
2019-06-10T04:56:47.684Z,724.00
2019-06-10T04:57:47.681Z,632.00
2019-06-10T04:58:47.659Z,500.00
2019-06-10T04:59:47.649Z,436.00
2019-06-10T05:00:47.636Z,392.00
2019-06-10T05:01:47.632Z,372.00
2019-06-10T05:02:47.627Z,324.00
2019-06-10T05:03:47.622Z,348.00
2019-06-10T05:04:47.610Z,364.00
2019-06-10T05:05:47.587Z,396.00
2019-06-10T05:06:47.582Z,428.00
2019-06-10T05:07:47.563Z,408.00
2019-06-10T05:08:47.551Z,364.00
2019-06-10T05:09:47.544Z,336.00
2019-06-10T05:10:47.527Z,344.00
2019-06-10T05:11:47.559Z,360.00
2019-06-10T05:12:47.503Z,336.00
2019-06-10T05:13:47.492Z,392.00
2019-06-10T05:14:47.483Z,416.00
2019-06-10T05:15:47.476Z,480.00
2019-06-10T05:16:47.461Z,576.00
2019-06-10T05:17:47.459Z,568.00
2019-06-10T05:18:47.444Z,560.00
2019-06-10T05:19:47.432Z,528.00
2019-06-10T05:20:57.748Z,628.00
2019-06-10T05:21:48.410Z,852.00
2019-06-10T05:22:47.401Z,980.00
2019-06-10T05:23:47.385Z,1124.00
2019-06-10T05:24:47.371Z,1232.00
2019-06-10T05:25:47.363Z,1312.00
2019-06-10T05:26:47.347Z,1264.00
2019-06-10T05:27:47.379Z,1160.00
2019-06-10T05:28:47.329Z,1208.00
2019-06-10T05:29:47.312Z,1260.00
2019-06-10T05:30:47.305Z,1440.00
2019-06-10T05:31:47.292Z,1800.00
2019-06-10T05:32:47.279Z,1704.00
2019-06-10T05:33:47.280Z,1444.00
2019-06-10T05:34:47.261Z,1392.00
2019-06-10T05:35:47.267Z,1320.00
2019-06-10T05:36:47.243Z,1236.00
2019-06-10T05:37:47.224Z,1192.00
2019-06-10T05:38:47.217Z,1188.00
2019-06-10T05:39:47.209Z,1124.00
2019-06-10T05:40:47.219Z,1108.00
2019-06-10T05:41:50.122Z,1144.00
2019-06-10T05:42:47.168Z,1264.00
2019-06-10T05:43:47.158Z,1460.00
2019-06-10T05:44:47.147Z,1660.00
2019-06-10T05:45:47.136Z,1604.00
2019-06-10T05:46:47.138Z,1692.00
2019-06-10T05:47:47.115Z,1864.00
2019-06-10T05:48:47.115Z,1836.00
2019-06-10T05:49:47.096Z,2048.00
2019-06-10T05:50:59.269Z,2208.00
2019-06-10T05:51:48.086Z,1988.00
2019-06-10T05:52:47.056Z,1992.00
2019-06-10T05:53:47.046Z,2308.00
2019-06-10T05:54:47.035Z,2472.00
2019-06-10T05:55:47.025Z,2636.00
2019-06-10T05:56:47.024Z,3004.00
2019-06-10T05:57:47.016Z,3268.00
2019-06-10T05:58:46.996Z,3336.00
2019-06-10T05:59:46.980Z,3172.00
2019-06-10T06:00:46.967Z,3396.00
2019-06-10T06:01:46.967Z,3748.00
2019-06-10T06:02:46.967Z,3580.00
2019-06-10T06:03:46.951Z,3620.00
2019-06-10T06:04:46.928Z,3852.00
2019-06-10T06:05:46.924Z,4100.00
2019-06-10T06:06:46.903Z,3588.00
2019-06-10T06:08:01.354Z,3552.00
2019-06-10T06:08:47.884Z,3576.00
2019-06-10T06:09:46.876Z,3192.00
2019-06-10T06:10:46.864Z,2876.00
2019-06-10T06:11:46.854Z,2344.00
2019-06-10T06:12:46.835Z,2012.00
2019-06-10T06:13:46.873Z,1884.00
2019-06-10T06:14:46.821Z,1860.00
2019-06-10T06:15:46.809Z,1952.00
2019-06-10T06:16:46.804Z,1912.00
2019-06-10T06:17:46.780Z,1916.00
2019-06-10T06:18:46.781Z,2048.00
2019-06-10T06:19:46.785Z,2088.00
2019-06-10T06:20:46.753Z,2248.00
2019-06-10T06:21:47.918Z,2408.00
2019-06-10T06:22:46.727Z,2564.00
2019-06-10T06:23:46.715Z,2700.00
2019-06-10T06:24:46.709Z,2820.00
2019-06-10T06:25:47.159Z,3092.00
2019-06-10T06:26:46.694Z,3172.00
2019-06-10T06:27:46.670Z,3056.00
2019-06-10T06:28:46.664Z,3552.00
2019-06-10T06:29:46.651Z,3744.00
2019-06-10T06:30:46.651Z,4172.00
2019-06-10T06:31:46.642Z,4280.00
2019-06-10T06:32:46.616Z,4452.00
2019-06-10T06:33:46.619Z,4648.00
2019-06-10T06:34:46.593Z,4684.00
2019-06-10T06:35:46.860Z,4812.00
2019-06-10T06:36:46.583Z,5160.00
2019-06-10T06:37:46.567Z,5232.00
2019-06-10T06:38:46.552Z,5304.00
2019-06-10T06:39:46.547Z,5452.00
2019-06-10T06:40:46.555Z,5132.00
2019-06-10T06:41:46.531Z,4856.00
2019-06-10T06:42:46.518Z,4476.00
2019-06-10T06:43:46.507Z,3908.00
2019-06-10T06:44:46.512Z,3388.00
2019-06-10T06:45:46.479Z,3276.00
2019-06-10T06:46:46.485Z,3076.00
2019-06-10T06:47:46.449Z,2748.00
2019-06-10T06:48:46.440Z,2420.00
2019-06-10T06:49:46.427Z,2320.00
2019-06-10T06:51:00.402Z,2228.00
2019-06-10T06:51:55.117Z,2016.00
2019-06-10T06:53:19.016Z,2000.00
2019-06-10T06:53:52.022Z,2076.00
2019-06-10T06:54:47.379Z,2100.00
2019-06-10T06:55:47.067Z,2148.00
2019-06-10T06:56:46.369Z,2344.00
2019-06-10T06:57:46.343Z,2708.00
2019-06-10T06:58:46.335Z,3484.00
2019-06-10T06:59:46.322Z,4348.00
2019-06-10T07:01:00.536Z,5064.00
2019-06-10T07:01:47.320Z,5436.00
2019-06-10T07:02:46.288Z,5784.00
2019-06-10T07:03:46.275Z,6208.00
2019-06-10T07:04:46.263Z,6680.00
2019-06-10T07:05:46.256Z,7320.00
2019-06-10T07:06:46.247Z,7208.00
2019-06-10T07:07:46.239Z,7296.00
2019-06-10T07:09:00.337Z,7452.00
2019-06-10T07:09:47.212Z,9336.00
2019-06-10T07:10:46.207Z,8544.00
2019-06-10T07:11:46.221Z,10188.00
2019-06-10T07:12:46.177Z,11900.00
2019-06-10T07:13:46.189Z,12468.00
2019-06-10T07:14:46.178Z,12924.00
2019-06-10T07:15:47.318Z,12384.00
2019-06-10T07:16:46.821Z,12340.00
2019-06-10T07:17:46.128Z,10856.00
2019-06-10T07:18:50.296Z,9844.00
2019-06-10T07:19:46.108Z,9776.00
2019-06-10T07:20:46.107Z,8632.00
2019-06-10T07:22:05.413Z,6060.00
2019-06-10T07:22:47.065Z,5692.00
2019-06-10T07:23:47.130Z,5856.00
2019-06-10T07:24:47.651Z,5988.00
2019-06-10T07:25:47.469Z,5360.00
2019-06-10T07:26:54.079Z,4628.00
2019-06-10T07:27:47.158Z,4004.00
2019-06-10T07:28:47.541Z,3656.00
2019-06-10T07:29:47.337Z,3212.00
2019-06-10T07:30:51.208Z,3280.00
2019-06-10T07:31:50.310Z,3556.00
2019-06-10T07:32:47.513Z,4080.00
2019-06-10T07:33:47.439Z,4548.00
2019-06-10T07:34:46.988Z,4276.00
2019-06-10T07:35:45.926Z,4044.00
2019-06-10T07:36:53.609Z,3188.00
2019-06-10T07:37:46.199Z,2904.00
2019-06-10T07:38:49.083Z,2880.00
2019-06-10T07:39:45.882Z,3032.00
2019-06-10T07:40:55.153Z,3584.00
2019-06-10T07:41:47.953Z,4300.00
2019-06-10T07:42:45.880Z,4600.00
2019-06-10T07:43:49.561Z,4076.00
2019-06-10T07:44:45.820Z,3748.00
2019-06-10T07:45:47.979Z,3232.00
2019-06-10T07:46:45.817Z,3388.00
2019-06-10T07:47:45.850Z,3736.00
2019-06-10T07:48:48.158Z,3864.00
2019-06-10T07:49:45.774Z,3876.00
2019-06-10T07:50:45.942Z,3788.00
2019-06-10T07:51:46.467Z,3848.00
2019-06-10T07:52:46.821Z,3608.00
2019-06-10T07:53:46.838Z,3360.00
2019-06-10T07:54:45.714Z,3848.00
2019-06-10T07:55:46.630Z,4400.00
2019-06-10T07:56:50.179Z,4584.00
2019-06-10T07:57:45.777Z,4448.00
2019-06-10T07:58:47.664Z,4388.00
2019-06-10T07:59:46.012Z,4032.00
2019-06-10T08:00:48.196Z,3804.00
2019-06-10T08:01:55.117Z,3680.00
2019-06-10T08:02:46.103Z,3860.00
2019-06-10T08:03:46.668Z,4024.00
2019-06-10T08:04:46.042Z,4732.00
2019-06-10T08:05:46.662Z,5204.00
2019-06-10T08:06:45.922Z,6072.00
2019-06-10T08:07:47.566Z,8268.00
2019-06-10T08:08:45.589Z,7104.00
2019-06-10T08:09:45.867Z,11032.00
2019-06-10T08:10:46.322Z,17632.00
2019-06-10T08:11:48.285Z,18624.00
2019-06-10T08:12:46.970Z,17056.00
2019-06-10T08:13:46.347Z,16288.00
2019-06-10T08:14:45.851Z,13108.00
2019-06-10T08:15:46.155Z,14352.00
2019-06-10T08:16:46.800Z,10920.00
2019-06-10T08:17:45.803Z,11100.00
2019-06-10T08:19:11.062Z,8980.00
2019-06-10T08:19:50.580Z,14724.00
2019-06-10T08:20:47.643Z,13396.00
2019-06-10T08:21:48.883Z,13060.00
2019-06-10T08:22:54.050Z,15924.00
2019-06-10T08:23:47.454Z,15912.00
2019-06-10T08:24:45.486Z,11304.00
2019-06-10T08:25:51.049Z,8860.00
2019-06-10T08:26:47.679Z,11256.00
2019-06-10T08:27:47.424Z,7840.00
2019-06-10T08:28:46.592Z,7400.00
2019-06-10T08:29:48.060Z,7424.00
2019-06-10T08:30:46.119Z,7268.00
2019-06-10T08:31:48.410Z,6952.00
2019-06-10T08:32:47.153Z,6944.00
2019-06-10T08:33:47.085Z,6356.00
2019-06-10T08:34:47.925Z,5980.00
2019-06-10T08:35:55.806Z,6108.00
2019-06-10T08:36:50.085Z,6364.00
2019-06-10T08:37:46.312Z,6968.00
2019-06-10T08:38:48.296Z,8244.00
2019-06-10T08:39:46.291Z,8812.00
2019-06-10T08:40:47.952Z,9364.00
2019-06-10T08:41:48.634Z,9172.00
2019-06-10T08:42:47.458Z,8672.00
2019-06-10T08:43:47.125Z,8504.00
2019-06-10T08:44:47.237Z,8476.00
2019-06-10T08:45:47.093Z,8544.00
2019-06-10T08:46:46.869Z,7804.00
2019-06-10T08:47:47.061Z,7384.00
2019-06-10T08:48:47.772Z,7148.00
2019-06-10T08:49:46.287Z,7184.00
2019-06-10T08:50:48.264Z,7360.00
2019-06-10T08:51:48.317Z,7592.00
2019-06-10T08:53:03.326Z,7876.00
2019-06-10T08:53:48.320Z,8272.00
2019-06-10T08:54:47.983Z,8396.00
2019-06-10T08:55:47.799Z,7680.00
2019-06-10T08:56:47.628Z,7096.00
2019-06-10T08:57:48.785Z,6892.00
2019-06-10T08:58:48.613Z,6800.00
2019-06-10T08:59:47.667Z,6912.00
2019-06-10T09:00:47.813Z,7040.00
2019-06-10T09:01:46.851Z,6996.00
2019-06-10T09:02:49.894Z,6912.00
2019-06-10T09:03:48.582Z,6724.00
2019-06-10T09:04:47.605Z,6588.00
2019-06-10T09:05:49.044Z,6536.00
2019-06-10T09:06:47.977Z,6612.00
2019-06-10T09:07:49.546Z,6892.00
2019-06-10T09:08:49.523Z,7236.00
2019-06-10T09:09:49.156Z,7436.00
2019-06-10T09:10:49.125Z,7412.00
2019-06-10T09:11:47.909Z,7116.00
2019-06-10T09:12:49.223Z,6904.00
2019-06-10T09:13:48.051Z,7060.00
2019-06-10T09:14:46.786Z,7592.00
2019-06-10T09:15:55.097Z,7880.00
2019-06-10T09:16:47.651Z,7768.00
2019-06-10T09:17:47.914Z,7484.00
2019-06-10T09:18:49.279Z,7292.00
2019-06-10T09:19:48.789Z,7104.00
2019-06-10T09:20:49.000Z,7184.00
2019-06-10T09:21:49.755Z,7424.00
2019-06-10T09:22:54.368Z,7788.00
2019-06-10T09:23:49.558Z,8180.00
2019-06-10T09:24:49.390Z,8608.00
2019-06-10T09:25:48.989Z,9592.00
2019-06-10T09:26:48.634Z,10592.00
2019-06-10T09:27:47.972Z,11484.00
2019-06-10T09:28:49.113Z,12336.00
2019-06-10T09:29:49.114Z,13144.00
2019-06-10T09:30:50.458Z,12340.00
2019-06-10T09:31:48.835Z,11544.00
2019-06-10T09:32:48.518Z,10964.00
2019-06-10T09:33:50.336Z,10484.00
2019-06-10T09:34:49.711Z,10684.00
2019-06-10T09:35:48.996Z,10304.00
2019-06-10T09:36:49.124Z,9896.00
2019-06-10T09:37:48.409Z,9952.00
2019-06-10T09:38:48.464Z,10340.00
2019-06-10T09:39:51.827Z,11292.00
2019-06-10T09:40:49.500Z,13316.00
2019-06-10T09:41:55.414Z,14424.00
2019-06-10T09:42:48.094Z,14184.00
2019-06-10T09:43:50.324Z,13172.00
2019-06-10T09:44:48.662Z,12408.00
2019-06-10T09:45:46.040Z,16352.00
2019-06-10T09:46:47.238Z,38432.00
2019-06-10T09:47:47.152Z,61760.00
2019-06-10T09:48:49.669Z,62368.00
2019-06-10T09:49:47.551Z,57728.00
2019-06-10T09:50:49.025Z,57792.00
2019-06-10T09:51:48.998Z,51072.00
2019-06-10T09:52:48.429Z,43840.00
2019-06-10T09:53:52.450Z,47520.00
2019-06-10T09:54:50.031Z,44736.00
2019-06-10T09:55:49.125Z,53728.00
2019-06-10T09:56:47.214Z,56352.00
2019-06-10T09:57:46.949Z,55200.00
2019-06-10T09:58:47.507Z,51456.00
2019-06-10T09:59:47.754Z,60736.00
2019-06-10T10:00:48.835Z,52288.00
2019-06-10T10:01:50.244Z,50720.00
2019-06-10T10:02:48.778Z,37408.00
2019-06-10T10:03:49.305Z,37248.00
2019-06-10T10:04:50.529Z,45024.00
2019-06-10T10:05:55.974Z,47936.00
2019-06-10T10:06:48.930Z,57472.00
2019-06-10T10:07:48.346Z,73632.00
2019-06-10T10:08:49.335Z,77376.00
2019-06-10T10:09:48.483Z,79552.00
2019-06-10T10:10:49.423Z,64032.00
2019-06-10T10:11:47.081Z,81088.00
2019-06-10T10:12:46.304Z,90720.00
2019-06-10T10:13:47.424Z,91712.00
2019-06-10T10:14:48.116Z,88128.00
2019-06-10T10:15:44.197Z,83264.00
2019-06-10T10:16:49.384Z,82816.00
2019-06-10T10:17:47.790Z,78656.00
2019-06-10T10:18:47.283Z,72096.00
2019-06-10T10:19:46.847Z,57056.00
2019-06-10T10:20:47.728Z,76352.00
2019-06-10T10:21:47.763Z,56832.00
2019-06-10T10:22:46.080Z,50944.00
2019-06-10T10:23:54.903Z,46432.00
2019-06-10T10:24:46.227Z,19424.00
2019-06-10T10:25:46.266Z,19808.00
2019-06-10T10:26:47.169Z,31808.00
2019-06-10T10:27:48.330Z,69216.00
2019-06-10T10:28:48.028Z,43744.00
2019-06-10T10:29:46.885Z,31776.00
2019-06-10T10:30:46.033Z,37216.00
2019-06-10T10:31:47.485Z,64256.00
2019-06-10T10:32:47.648Z,57888.00
2019-06-10T10:33:44.322Z,38592.00
2019-06-10T10:34:47.007Z,48224.00
2019-06-10T10:35:46.074Z,56352.00
2019-06-10T10:36:46.433Z,49600.00
2019-06-10T10:37:44.583Z,45152.00
2019-06-10T10:38:44.763Z,40352.00
2019-06-10T10:39:45.151Z,35584.00
2019-06-10T10:40:47.076Z,32512.00
2019-06-10T10:41:45.170Z,27936.00
2019-06-10T10:42:49.819Z,25056.00
2019-06-10T10:43:47.063Z,22400.00
2019-06-10T10:44:46.630Z,15364.00
2019-06-10T10:45:47.448Z,11148.00
2019-06-10T10:46:45.460Z,8452.00
2019-06-10T10:47:44.992Z,7196.00
2019-06-10T10:48:44.990Z,6876.00
2019-06-10T10:49:44.997Z,6636.00
2019-06-10T10:50:45.507Z,6448.00
2019-06-10T10:51:44.891Z,6228.00
2019-06-10T10:52:45.066Z,5912.00
2019-06-10T10:53:48.442Z,5736.00
2019-06-10T10:54:46.484Z,5648.00
2019-06-10T10:55:45.181Z,5608.00
2019-06-10T10:56:46.197Z,5640.00
2019-06-10T10:57:43.769Z,5764.00
2019-06-10T10:58:46.671Z,5912.00
2019-06-10T10:59:45.104Z,5924.00
2019-06-10T11:00:45.403Z,5832.00
2019-06-10T11:01:44.122Z,5932.00
2019-06-10T11:02:44.965Z,6328.00
2019-06-10T11:03:45.645Z,7460.00
2019-06-10T11:04:44.297Z,7624.00
2019-06-10T11:05:46.219Z,7936.00
2019-06-10T11:06:44.554Z,8964.00
2019-06-10T11:07:44.504Z,8380.00
2019-06-10T11:08:45.273Z,7900.00
2019-06-10T11:09:44.841Z,7860.00
2019-06-10T11:10:45.696Z,8116.00
2019-06-10T11:11:44.555Z,8004.00
2019-06-10T11:12:44.907Z,8008.00
2019-06-10T11:13:45.165Z,8296.00
2019-06-10T11:14:44.697Z,8084.00
2019-06-10T11:15:45.633Z,7880.00
2019-06-10T11:16:45.151Z,8100.00
2019-06-10T11:17:43.572Z,8168.00
2019-06-10T11:18:43.551Z,8084.00
2019-06-10T11:19:43.540Z,8204.00
2019-06-10T11:20:43.532Z,8052.00
2019-06-10T11:21:43.523Z,8468.00
2019-06-10T11:22:43.508Z,8996.00
2019-06-10T11:23:43.898Z,10792.00
2019-06-10T11:24:44.929Z,10740.00
2019-06-10T11:25:43.478Z,10092.00
2019-06-10T11:26:43.503Z,10492.00
2019-06-10T11:27:43.452Z,11092.00
2019-06-10T11:28:43.446Z,11620.00
2019-06-10T11:29:43.431Z,11888.00
2019-06-10T11:30:43.431Z,12732.00
2019-06-10T11:31:43.426Z,13752.00
2019-06-10T11:32:43.427Z,13752.00
2019-06-10T11:33:43.836Z,13500.00
2019-06-10T11:34:43.380Z,13044.00
2019-06-10T11:35:43.367Z,12592.00
2019-06-10T11:36:43.350Z,13656.00
2019-06-10T11:37:43.374Z,12272.00
2019-06-10T11:38:43.335Z,18240.00
2019-06-10T11:39:43.317Z,27168.00
2019-06-10T11:40:43.315Z,37216.00
2019-06-10T11:41:43.790Z,51296.00
2019-06-10T11:42:43.686Z,55072.00
2019-06-10T11:43:43.371Z,61984.00
2019-06-10T11:44:43.269Z,62816.00
2019-06-10T11:45:48.297Z,56352.00
2019-06-10T11:46:44.249Z,55328.00
2019-06-10T11:47:43.236Z,47424.00
2019-06-10T11:48:44.335Z,34400.00
2019-06-10T11:49:43.575Z,24512.00
2019-06-10T11:50:43.207Z,18272.00
2019-06-10T11:51:43.190Z,16448.00
2019-06-10T11:52:43.374Z,15084.00
2019-06-10T11:53:44.021Z,14016.00
2019-06-10T11:54:55.772Z,13500.00
2019-06-10T11:55:44.150Z,13132.00
2019-06-10T11:56:43.146Z,13388.00
2019-06-10T11:57:43.134Z,13444.00
2019-06-10T11:58:43.598Z,13272.00
2019-06-10T11:59:43.612Z,12740.00
2019-06-10T12:00:43.101Z,12308.00
2019-06-10T12:01:43.088Z,12540.00
2019-06-10T12:02:43.087Z,12120.00
2019-06-10T12:03:43.441Z,11820.00
2019-06-10T12:04:43.110Z,11768.00
2019-06-10T12:05:43.047Z,11880.00
2019-06-10T12:06:43.045Z,11436.00
2019-06-10T12:07:43.599Z,11324.00
2019-06-10T12:08:43.765Z,11280.00
2019-06-10T12:09:43.017Z,11248.00
2019-06-10T12:10:43.461Z,11056.00
2019-06-10T12:11:43.873Z,11248.00
2019-06-10T12:12:43.455Z,11404.00
2019-06-10T12:13:43.074Z,10912.00
2019-06-10T12:14:43.247Z,11128.00
2019-06-10T12:16:20.922Z,11464.00
2019-06-10T12:17:17.516Z,10744.00
2019-06-10T12:17:51.068Z,9844.00
2019-06-10T12:18:44.184Z,9536.00
2019-06-10T12:19:43.408Z,9564.00
2019-06-10T12:20:42.931Z,9800.00
2019-06-10T12:21:43.505Z,10040.00
2019-06-10T12:22:42.866Z,9992.00